McGuffey, OH (45859)

8:14 PM EST on December 09, 2016 (GMT -0500)
Ada | | Change Station

Elev 912 ft 40.82 °N, 83.86 °W | Updated 14 seconds ago

Overcast
Overcast
25.1 °F
Feels Like 25 °F
N
0.0
Wind Variable Wind from WSW
Gusts 1.0 mph

Today
High -- | Low -- °F
--% Chance of Precip.
Yesterday
High -- | Low -- °F
Precip. -- in
Pressure 30.51 in
Visibility 10.0 miles
Clouds Overcast 4600 ft
Windchill 25 °F
Dew Point 21 °F
Humidity 85%
Rainfall 0.00 in
Snow Depth Not available.
7:47 AM 5:07 PM
Waxing Gibbous, 79% visible
METAR KAOH 100053Z AUTO 24009KT 10SM OVC046 M04/M07 A3047 RMK AO2 SLP332 T10391072
Pressure 30.51 in
Visibility 10.0 miles
Clouds Overcast 4600 ft
Windchill 25 °F
Dew Point 21 °F
Humidity 85%
Rainfall 0.00 in
Snow Depth Not available.
7:47 AM 5:07 PM
Waxing Gibbous, 79% visible
METAR KAOH 100053Z AUTO 24009KT 10SM OVC046 M04/M07 A3047 RMK AO2 SLP332 T10391072

10-Day Weather Forecast

Almanac

Astronomy

Dec. 09, 2016 Rise Set
Actual Time
Civil Twilight
Nautical Twilight
Astronomical Twilight
Moon
Length of Visible Light
Length of Day
Tomorrow will be .
, % of the Moon is Illuminated

Today's Extremes

State Highs State Lows

Community

WunderPhotos

Upload Photos

1,956,534 photos uploaded!

WunderBlog® & News

Nearby

Air Quality

  Air Quality AQ Index Pollutant
Not available.

Snow Depth

Station Depth Elevation

Earthquake Activity

City Distance Mag. Time & Date
Minimum magnitude displayed is 2.5.

Coastal Water Temperatures

Place Temperature

Stations

Nearby Weather Stations

Station Location Temp. Windchill Dew Point Humidity Wind Precip. Elev Updated Type
                   

Watches & Warnings

There are currently no watches in effect.